Aérodrome :
LOGIN :

S'inscrire | Disclaimer

   EN    FR    IT 

 










Légende :    VFR   VFR Marginal   IFR   IFR Intensif   IFR Très Intensif
Visi : 
Plafond : 
>= 8 km
>= 3000ft
5 à 8 km
1000 à 3000 ft
1500m à 5 km
500 à 1000 ft
800 à 1500m
200 à 500 ft
< 800m
< 200 ft
Symboles :   Orages  Brouillard  Fortes neiges  Fortes précipitations  Vent > 20 kt
SIGMETs :   Divers  Orages  Givrage  Turbulence  Onde Orograph.  Cendres Volcan.







- Altitude de l'aérodrome : 2096 ft
- Code IATA : AUR
- Voir les cartes d'approche


LFLW - Aurillac

DERNIER METAR :
  • 291300Z AUTO 17013KT 140V210 CAVOK 25/09 Q1017 NOSIG

METARs EXPIRÉS :
  • 291230Z AUTO 19010KT 150V220 CAVOK 24/08 Q1017 NOSIG
  • 291200Z AUTO 14009KT 110V200 CAVOK 25/11 Q1017 NOSIG
  • 291130Z AUTO 15010KT 100V190 CAVOK 24/10 Q1017 NOSIG
  • 291100Z AUTO 16011KT 130V200 CAVOK 24/09 Q1017 NOSIG
  • 291030Z AUTO 14011KT 110V170 CAVOK 23/10 Q1017 NOSIG

TAF TAF LFLW
Valide du 29 à 12h jusqu'au 29 à 21h UTC


291100Z 2912/2921 16008G18KT CAVOK
BECMG 2915/2918 SCT040TCU
PROB40
TEMPO 2918/2921 30015G25KT SHRA SCT020CB BKN040
PROB30
TEMPO 2918/2921 TSRA
Pas de NOTAMs connus pour ce terrain.
1 SIGMET publié pour la FIR Bordeaux (LFBB) :
 
Orages noyés dans la masse
LFBB SIGMET 7 VALID 291050/291300 LFPW
LFBB BORDEAUX FIR/UIR EMBD TS OBS S OF N4400 AND W OF W00030 TOP FL360 MOV N 30KT NC=



MET'MAP, la Météo Aéronautique d'un coup d'oeil ! - Copyright ORBIFLY Décembre 2007 - Disclaimer

ORBIFLY MET'MAP TEAM :

Programmation & Développement : Alexandra Zaïnal
Conception & Développement : Baudouin d'Aumeries
Co-Programmation & Développement : Marc-Olivier Méhu
Soutien technique & logistique : Manuel Goepfert

Contact : metmap@orbifly.com




SOURCES & CREDITS :

   NOAA